Anaheim Hills, CA

11:21 AM PST on December 21, 2014 (GMT -0800)
Anaheim Hills - Imperial | Change Station
CLOSE
Current Station
Personal Weather Station
Location: Anaheim, CA
Elevation: 417 ft
Nearby Weather Stations
Active Advisory: Beach Hazard Statement

Elev 417 ft 33.85 °N, 117.78 °W | Updated 1 minute ago

Partly Cloudy
Partly Cloudy
61.3 °F
Feels Like 61.3 °F
N
0.0
Wind Variable Wind from NNE

Today
High -- | Low -- °F
--% Chance of Precip.
Yesterday
High -- | Low -- °F
Precip. -- in
6:52 AM 4:46 PM
Waning Crescent, 0% visible
Pressure 30.13 in
Visibility 6.0 miles
Clouds Clear
Dew Point 54 °F
Humidity 78%
Rainfall 0.00 in
Snow Depth Not available.
UV 3 out of 12
Pollen 4.00 out of 12
Air Quality Not available.
Flu Activity Not available.
METAR KFUL 211853Z 00000KT 6SM HZ CLR 17/11 A3013 RMK AO2 SLP202 T01720106

More Conditions Fewer Conditions

Pressure 30.13 in
Visibility 6.0 miles
Clouds Clear
Dew Point 54 °F
Humidity 78%
Rainfall 0.00 in
Snow Depth Not available.
UV 3 out of 12
Pollen 4.00 out of 12
Air Quality Not available.
Flu Activity Not available.
METAR KFUL 211853Z 00000KT 6SM HZ CLR 17/11 A3013 RMK AO2 SLP202 T01720106

More Conditions Fewer Conditions

10-Day Weather Forecast

Almanac

Astronomy

Dec. 21, 2014 Rise Set
Actual Time
Civil Twilight
Nautical Twilight
Astronomical Twilight
Moon
Length of Visible Light
Length of Day
Tomorrow will be .
, % of the Moon is Illuminated

Today's Extremes

State Highs State Lows

Community

WunderPhotos

Upload Photos

1,779,466 photos uploaded!

WunderBlogs® & News

Nearby

Air Quality

  Air Quality AQ Index Pollutant
Not available.

Snow Depth

Station Depth Elevation

Earthquake Activity

City Distance Mag. Time & Date
Minimum magnitude displayed is 2.5.

Coastal Water Temperatures

Place Temperature

Nearby Weather Stations